sensor_id;sensor_type;location;lat;lon;timestamp;P1;durP1;ratioP1;P2;durP2;ratioP2
73585;SDS011;61865;50.232;18.614;2023-04-01T00:00:58;6.22;;;3.17;;
73585;SDS011;61865;50.232;18.614;2023-04-01T00:03:21;5.70;;;2.90;;
73585;SDS011;61865;50.232;18.614;2023-04-01T00:05:44;6.13;;;3.38;;
73585;SDS011;61865;50.232;18.614;2023-04-01T00:08:06;8.32;;;2.90;;
73585;SDS011;61865;50.232;18.614;2023-04-01T00:10:28;7.05;;;3.25;;
73585;SDS011;61865;50.232;18.614;2023-04-01T00:12:50;5.72;;;2.95;;
73585;SDS011;61865;50.232;18.614;2023-04-01T00:15:13;7.05;;;3.10;;
73585;SDS011;61865;50.232;18.614;2023-04-01T00:17:35;5.80;;;2.90;;
73585;SDS011;61865;50.232;18.614;2023-04-01T00:19:57;7.97;;;3.58;;
73585;SDS011;61865;50.232;18.614;2023-04-01T00:22:19;7.10;;;2.88;;
73585;SDS011;61865;50.232;18.614;2023-04-01T00:24:42;7.97;;;3.10;;
73585;SDS011;61865;50.232;18.614;2023-04-01T00:27:04;8.85;;;3.58;;
73585;SDS011;61865;50.232;18.614;2023-04-01T00:29:27;6.82;;;3.50;;
73585;SDS011;61865;50.232;18.614;2023-04-01T00:31:52;5.15;;;2.97;;
73585;SDS011;61865;50.232;18.614;2023-04-01T00:34:13;6.68;;;3.17;;
73585;SDS011;61865;50.232;18.614;2023-04-01T00:36:35;7.32;;;3.20;;
73585;SDS011;61865;50.232;18.614;2023-04-01T00:38:58;6.53;;;3.35;;
73585;SDS011;61865;50.232;18.614;2023-04-01T00:41:20;5.03;;;2.95;;
73585;SDS011;61865;50.232;18.614;2023-04-01T00:43:43;6.32;;;3.25;;
73585;SDS011;61865;50.232;18.614;2023-04-01T00:46:06;7.75;;;3.28;;
73585;SDS011;61865;50.232;18.614;2023-04-01T00:48:30;7.60;;;3.30;;
73585;SDS011;61865;50.232;18.614;2023-04-01T00:50:55;7.13;;;3.83;;
73585;SDS011;61865;50.232;18.614;2023-04-01T00:53:20;6.55;;;3.72;;
73585;SDS011;61865;50.232;18.614;2023-04-01T00:55:45;5.53;;;3.40;;
73585;SDS011;61865;50.232;18.614;2023-04-01T00:58:14;6.40;;;3.22;;
73585;SDS011;61865;50.232;18.614;2023-04-01T01:00:38;7.80;;;3.30;;
73585;SDS011;61865;50.232;18.614;2023-04-01T01:03:00;8.50;;;3.25;;
73585;SDS011;61865;50.232;18.614;2023-04-01T01:05:26;5.57;;;3.33;;
73585;SDS011;61865;50.232;18.614;2023-04-01T01:08:00;6.95;;;3.75;;
73585;SDS011;61865;50.232;18.614;2023-04-01T01:10:26;7.40;;;3.83;;
73585;SDS011;61865;50.232;18.614;2023-04-01T01:12:54;6.75;;;3.40;;
73585;SDS011;61865;50.232;18.614;2023-04-01T01:15:25;6.32;;;3.25;;
73585;SDS011;61865;50.232;18.614;2023-04-01T01:17:51;6.75;;;3.25;;
73585;SDS011;61865;50.232;18.614;2023-04-01T01:20:27;6.55;;;3.22;;
73585;SDS011;61865;50.232;18.614;2023-04-01T01:26:15;5.15;;;3.30;;
73585;SDS011;61865;50.232;18.614;2023-04-01T01:29:01;9.23;;;3.42;;
73585;SDS011;61865;50.232;18.614;2023-04-01T01:31:36;7.18;;;4.00;;
73585;SDS011;61865;50.232;18.614;2023-04-01T01:36:38;7.00;;;3.03;;
73585;SDS011;61865;50.232;18.614;2023-04-01T01:39:05;10.90;;;3.75;;
73585;SDS011;61865;50.232;18.614;2023-04-01T01:41:29;10.32;;;3.50;;
73585;SDS011;61865;50.232;18.614;2023-04-01T01:43:53;10.02;;;3.67;;
73585;SDS011;61865;50.232;18.614;2023-04-01T01:46:18;6.70;;;3.40;;
73585;SDS011;61865;50.232;18.614;2023-04-01T01:48:43;6.90;;;3.45;;
73585;SDS011;61865;50.232;18.614;2023-04-01T01:51:07;7.32;;;3.70;;
73585;SDS011;61865;50.232;18.614;2023-04-01T01:53:30;7.90;;;3.75;;
73585;SDS011;61865;50.232;18.614;2023-04-01T01:55:52;8.52;;;3.78;;
73585;SDS011;61865;50.232;18.614;2023-04-01T01:58:16;7.93;;;3.53;;
73585;SDS011;61865;50.232;18.614;2023-04-01T02:00:40;11.63;;;4.53;;
73585;SDS011;61865;50.232;18.614;2023-04-01T02:03:04;8.45;;;4.22;;
73585;SDS011;61865;50.232;18.614;2023-04-01T02:05:27;8.55;;;3.95;;
73585;SDS011;61865;50.232;18.614;2023-04-01T02:07:52;8.23;;;3.97;;
73585;SDS011;61865;50.232;18.614;2023-04-01T02:10:20;7.70;;;3.85;;
73585;SDS011;61865;50.232;18.614;2023-04-01T02:12:46;7.30;;;4.28;;
73585;SDS011;61865;50.232;18.614;2023-04-01T02:15:09;10.48;;;4.28;;
73585;SDS011;61865;50.232;18.614;2023-04-01T02:17:34;7.57;;;4.13;;
73585;SDS011;61865;50.232;18.614;2023-04-01T02:20:04;9.13;;;4.28;;
73585;SDS011;61865;50.232;18.614;2023-04-01T02:22:29;9.02;;;3.75;;
73585;SDS011;61865;50.232;18.614;2023-04-01T02:24:57;6.95;;;4.00;;
73585;SDS011;61865;50.232;18.614;2023-04-01T02:27:23;11.48;;;4.47;;
73585;SDS011;61865;50.232;18.614;2023-04-01T02:29:46;9.18;;;3.95;;
73585;SDS011;61865;50.232;18.614;2023-04-01T02:32:08;10.30;;;4.03;;
73585;SDS011;61865;50.232;18.614;2023-04-01T02:34:31;9.05;;;4.53;;
73585;SDS011;61865;50.232;18.614;2023-04-01T02:36:53;10.50;;;4.68;;
73585;SDS011;61865;50.232;18.614;2023-04-01T02:39:17;7.20;;;4.20;;
73585;SDS011;61865;50.232;18.614;2023-04-01T02:41:40;7.75;;;4.45;;
73585;SDS011;61865;50.232;18.614;2023-04-01T02:44:04;12.65;;;4.13;;
73585;SDS011;61865;50.232;18.614;2023-04-01T02:46:27;8.50;;;4.18;;
73585;SDS011;61865;50.232;18.614;2023-04-01T02:48:49;9.85;;;4.63;;
73585;SDS011;61865;50.232;18.614;2023-04-01T02:51:11;8.02;;;4.70;;
73585;SDS011;61865;50.232;18.614;2023-04-01T02:53:33;7.75;;;4.93;;
73585;SDS011;61865;50.232;18.614;2023-04-01T02:55:55;12.65;;;6.20;;
73585;SDS011;61865;50.232;18.614;2023-04-01T02:58:17;11.45;;;5.28;;
73585;SDS011;61865;50.232;18.614;2023-04-01T03:00:40;10.98;;;5.00;;
73585;SDS011;61865;50.232;18.614;2023-04-01T03:03:02;12.95;;;5.60;;
73585;SDS011;61865;50.232;18.614;2023-04-01T03:05:24;17.17;;;6.10;;
73585;SDS011;61865;50.232;18.614;2023-04-01T03:07:47;11.45;;;5.65;;
73585;SDS011;61865;50.232;18.614;2023-04-01T03:10:09;11.23;;;5.97;;
73585;SDS011;61865;50.232;18.614;2023-04-01T03:12:31;10.05;;;6.05;;
73585;SDS011;61865;50.232;18.614;2023-04-01T03:14:53;9.13;;;5.30;;
73585;SDS011;61865;50.232;18.614;2023-04-01T03:17:16;10.45;;;5.55;;
73585;SDS011;61865;50.232;18.614;2023-04-01T03:19:38;11.13;;;5.57;;
73585;SDS011;61865;50.232;18.614;2023-04-01T03:22:00;12.38;;;5.88;;
73585;SDS011;61865;50.232;18.614;2023-04-01T03:24:22;9.55;;;5.25;;
73585;SDS011;61865;50.232;18.614;2023-04-01T03:26:44;9.48;;;5.13;;
73585;SDS011;61865;50.232;18.614;2023-04-01T03:29:06;10.85;;;5.72;;
73585;SDS011;61865;50.232;18.614;2023-04-01T03:31:28;10.27;;;6.38;;
73585;SDS011;61865;50.232;18.614;2023-04-01T03:33:51;13.02;;;6.38;;
73585;SDS011;61865;50.232;18.614;2023-04-01T03:36:13;13.77;;;6.10;;
73585;SDS011;61865;50.232;18.614;2023-04-01T03:38:35;10.63;;;5.93;;
73585;SDS011;61865;50.232;18.614;2023-04-01T03:40:57;8.75;;;5.10;;
73585;SDS011;61865;50.232;18.614;2023-04-01T03:43:19;10.25;;;5.00;;
73585;SDS011;61865;50.232;18.614;2023-04-01T03:45:43;11.30;;;5.00;;
73585;SDS011;61865;50.232;18.614;2023-04-01T03:48:05;9.55;;;4.88;;
73585;SDS011;61865;50.232;18.614;2023-04-01T03:50:28;13.85;;;4.47;;
73585;SDS011;61865;50.232;18.614;2023-04-01T03:52:50;7.35;;;4.20;;
73585;SDS011;61865;50.232;18.614;2023-04-01T03:55:12;11.52;;;3.85;;
73585;SDS011;61865;50.232;18.614;2023-04-01T03:57:34;8.07;;;4.35;;
73585;SDS011;61865;50.232;18.614;2023-04-01T03:59:56;6.70;;;3.97;;
73585;SDS011;61865;50.232;18.614;2023-04-01T04:02:18;7.85;;;3.97;;
73585;SDS011;61865;50.232;18.614;2023-04-01T04:04:40;8.50;;;4.15;;
73585;SDS011;61865;50.232;18.614;2023-04-01T04:07:04;7.38;;;4.15;;
73585;SDS011;61865;50.232;18.614;2023-04-01T04:09:26;11.07;;;3.70;;
73585;SDS011;61865;50.232;18.614;2023-04-01T04:11:47;11.85;;;4.00;;
73585;SDS011;61865;50.232;18.614;2023-04-01T04:14:10;8.68;;;4.05;;
73585;SDS011;61865;50.232;18.614;2023-04-01T04:16:31;10.70;;;4.18;;
73585;SDS011;61865;50.232;18.614;2023-04-01T04:18:57;7.13;;;3.88;;
73585;SDS011;61865;50.232;18.614;2023-04-01T04:21:22;8.82;;;4.15;;
73585;SDS011;61865;50.232;18.614;2023-04-01T04:23:48;9.88;;;3.78;;
73585;SDS011;61865;50.232;18.614;2023-04-01T04:26:11;7.35;;;3.67;;
73585;SDS011;61865;50.232;18.614;2023-04-01T04:28:34;8.25;;;4.40;;
73585;SDS011;61865;50.232;18.614;2023-04-01T04:30:56;17.75;;;11.18;;
73585;SDS011;61865;50.232;18.614;2023-04-01T04:33:18;14.48;;;9.55;;
73585;SDS011;61865;50.232;18.614;2023-04-01T04:35:40;19.90;;;13.18;;
73585;SDS011;61865;50.232;18.614;2023-04-01T04:38:02;17.55;;;9.15;;
73585;SDS011;61865;50.232;18.614;2023-04-01T04:40:26;17.02;;;7.88;;
73585;SDS011;61865;50.232;18.614;2023-04-01T04:42:47;16.85;;;7.28;;
73585;SDS011;61865;50.232;18.614;2023-04-01T04:45:09;15.45;;;6.38;;
73585;SDS011;61865;50.232;18.614;2023-04-01T04:47:33;19.20;;;7.63;;
73585;SDS011;61865;50.232;18.614;2023-04-01T04:49:55;19.08;;;7.93;;
73585;SDS011;61865;50.232;18.614;2023-04-01T04:52:17;29.38;;;12.43;;
73585;SDS011;61865;50.232;18.614;2023-04-01T04:54:38;26.40;;;12.02;;
73585;SDS011;61865;50.232;18.614;2023-04-01T04:57:02;44.75;;;16.92;;
73585;SDS011;61865;50.232;18.614;2023-04-01T04:59:24;36.42;;;13.25;;
73585;SDS011;61865;50.232;18.614;2023-04-01T05:01:46;31.40;;;12.35;;
73585;SDS011;61865;50.232;18.614;2023-04-01T05:04:08;31.55;;;11.73;;
73585;SDS011;61865;50.232;18.614;2023-04-01T05:06:30;39.50;;;15.65;;
73585;SDS011;61865;50.232;18.614;2023-04-01T05:08:52;36.38;;;15.85;;
73585;SDS011;61865;50.232;18.614;2023-04-01T05:11:14;34.67;;;16.33;;
73585;SDS011;61865;50.232;18.614;2023-04-01T05:13:42;16.40;;;8.73;;
73585;SDS011;61865;50.232;18.614;2023-04-01T05:16:07;13.93;;;7.78;;
73585;SDS011;61865;50.232;18.614;2023-04-01T05:18:30;13.88;;;7.38;;
73585;SDS011;61865;50.232;18.614;2023-04-01T05:20:52;16.95;;;8.15;;
73585;SDS011;61865;50.232;18.614;2023-04-01T05:23:16;15.23;;;6.97;;
73585;SDS011;61865;50.232;18.614;2023-04-01T05:25:38;10.82;;;5.90;;
73585;SDS011;61865;50.232;18.614;2023-04-01T05:28:00;10.63;;;5.75;;
73585;SDS011;61865;50.232;18.614;2023-04-01T05:30:24;10.05;;;4.85;;
73585;SDS011;61865;50.232;18.614;2023-04-01T05:32:45;11.07;;;4.90;;
73585;SDS011;61865;50.232;18.614;2023-04-01T05:35:07;12.65;;;5.35;;
73585;SDS011;61865;50.232;18.614;2023-04-01T05:37:30;10.60;;;5.75;;
73585;SDS011;61865;50.232;18.614;2023-04-01T05:39:51;13.07;;;5.85;;
73585;SDS011;61865;50.232;18.614;2023-04-01T05:42:14;10.55;;;5.55;;
73585;SDS011;61865;50.232;18.614;2023-04-01T05:44:36;15.85;;;5.90;;
73585;SDS011;61865;50.232;18.614;2023-04-01T05:46:59;11.40;;;5.35;;
73585;SDS011;61865;50.232;18.614;2023-04-01T05:49:21;13.63;;;5.97;;
73585;SDS011;61865;50.232;18.614;2023-04-01T05:51:43;13.68;;;5.90;;
73585;SDS011;61865;50.232;18.614;2023-04-01T05:54:05;14.73;;;5.18;;
73585;SDS011;61865;50.232;18.614;2023-04-01T05:56:27;10.25;;;4.97;;
73585;SDS011;61865;50.232;18.614;2023-04-01T05:58:50;10.93;;;5.32;;
73585;SDS011;61865;50.232;18.614;2023-04-01T06:01:14;11.70;;;4.65;;
73585;SDS011;61865;50.232;18.614;2023-04-01T06:03:37;12.00;;;4.75;;
73585;SDS011;61865;50.232;18.614;2023-04-01T06:05:59;8.15;;;4.28;;
73585;SDS011;61865;50.232;18.614;2023-04-01T06:08:21;10.95;;;5.13;;
73585;SDS011;61865;50.232;18.614;2023-04-01T06:10:48;12.15;;;6.15;;
73585;SDS011;61865;50.232;18.614;2023-04-01T06:13:18;12.27;;;5.78;;
73585;SDS011;61865;50.232;18.614;2023-04-01T06:15:53;10.80;;;4.85;;
73585;SDS011;61865;50.232;18.614;2023-04-01T06:18:44;12.60;;;4.40;;
73585;SDS011;61865;50.232;18.614;2023-04-01T06:21:24;11.18;;;4.93;;
73585;SDS011;61865;50.232;18.614;2023-04-01T06:23:59;9.40;;;4.88;;
73585;SDS011;61865;50.232;18.614;2023-04-01T06:26:33;14.68;;;5.90;;
73585;SDS011;61865;50.232;18.614;2023-04-01T06:29:04;15.15;;;4.97;;
73585;SDS011;61865;50.232;18.614;2023-04-01T06:31:35;10.18;;;5.07;;
73585;SDS011;61865;50.232;18.614;2023-04-01T06:34:17;9.77;;;4.93;;
73585;SDS011;61865;50.232;18.614;2023-04-01T06:37:13;10.45;;;4.60;;
73585;SDS011;61865;50.232;18.614;2023-04-01T06:39:50;9.13;;;4.60;;
73585;SDS011;61865;50.232;18.614;2023-04-01T06:42:36;6.68;;;3.80;;
73585;SDS011;61865;50.232;18.614;2023-04-01T06:45:14;8.48;;;4.40;;
73585;SDS011;61865;50.232;18.614;2023-04-01T06:47:52;13.23;;;5.35;;
73585;SDS011;61865;50.232;18.614;2023-04-01T06:50:26;17.92;;;7.43;;
73585;SDS011;61865;50.232;18.614;2023-04-01T06:52:56;15.95;;;6.95;;
73585;SDS011;61865;50.232;18.614;2023-04-01T06:55:26;16.17;;;6.35;;
73585;SDS011;61865;50.232;18.614;2023-04-01T06:57:53;10.23;;;5.55;;
73585;SDS011;61865;50.232;18.614;2023-04-01T07:00:21;14.32;;;5.50;;
73585;SDS011;61865;50.232;18.614;2023-04-01T07:02:48;18.15;;;7.45;;
73585;SDS011;61865;50.232;18.614;2023-04-01T07:05:18;15.93;;;5.53;;
73585;SDS011;61865;50.232;18.614;2023-04-01T07:07:42;22.95;;;7.32;;
73585;SDS011;61865;50.232;18.614;2023-04-01T07:10:09;18.92;;;7.28;;
73585;SDS011;61865;50.232;18.614;2023-04-01T07:12:37;21.98;;;7.15;;
73585;SDS011;61865;50.232;18.614;2023-04-01T07:15:05;17.15;;;6.30;;
73585;SDS011;61865;50.232;18.614;2023-04-01T07:17:37;17.00;;;6.72;;
73585;SDS011;61865;50.232;18.614;2023-04-01T07:20:03;15.63;;;6.50;;
73585;SDS011;61865;50.232;18.614;2023-04-01T07:22:33;16.85;;;6.45;;
73585;SDS011;61865;50.232;18.614;2023-04-01T07:24:59;16.88;;;6.20;;
73585;SDS011;61865;50.232;18.614;2023-04-01T07:27:24;14.73;;;6.53;;
73585;SDS011;61865;50.232;18.614;2023-04-01T07:29:46;12.82;;;5.40;;
73585;SDS011;61865;50.232;18.614;2023-04-01T07:32:16;16.90;;;6.60;;
73585;SDS011;61865;50.232;18.614;2023-04-01T07:34:46;20.90;;;7.13;;
73585;SDS011;61865;50.232;18.614;2023-04-01T07:37:17;12.68;;;5.60;;
73585;SDS011;61865;50.232;18.614;2023-04-01T07:39:50;12.95;;;5.60;;
73585;SDS011;61865;50.232;18.614;2023-04-01T07:42:23;10.93;;;4.93;;
73585;SDS011;61865;50.232;18.614;2023-04-01T07:44:54;14.98;;;6.07;;
73585;SDS011;61865;50.232;18.614;2023-04-01T07:47:34;13.45;;;5.85;;
73585;SDS011;61865;50.232;18.614;2023-04-01T07:50:12;13.45;;;5.70;;
73585;SDS011;61865;50.232;18.614;2023-04-01T07:52:41;12.60;;;4.65;;
73585;SDS011;61865;50.232;18.614;2023-04-01T07:55:11;10.48;;;4.85;;
73585;SDS011;61865;50.232;18.614;2023-04-01T07:57:38;12.63;;;4.68;;
73585;SDS011;61865;50.232;18.614;2023-04-01T08:00:08;11.90;;;4.20;;
73585;SDS011;61865;50.232;18.614;2023-04-01T08:02:40;11.25;;;5.00;;
73585;SDS011;61865;50.232;18.614;2023-04-01T08:05:14;10.98;;;4.70;;
73585;SDS011;61865;50.232;18.614;2023-04-01T08:07:44;8.38;;;4.30;;
73585;SDS011;61865;50.232;18.614;2023-04-01T08:10:16;7.57;;;3.55;;
73585;SDS011;61865;50.232;18.614;2023-04-01T08:12:47;6.85;;;3.05;;
73585;SDS011;61865;50.232;18.614;2023-04-01T08:15:18;8.75;;;3.50;;
73585;SDS011;61865;50.232;18.614;2023-04-01T08:17:49;8.10;;;3.92;;
73585;SDS011;61865;50.232;18.614;2023-04-01T08:20:22;6.57;;;3.50;;
73585;SDS011;61865;50.232;18.614;2023-04-01T08:22:48;8.70;;;5.28;;
73585;SDS011;61865;50.232;18.614;2023-04-01T08:25:16;8.50;;;4.57;;
73585;SDS011;61865;50.232;18.614;2023-04-01T08:27:43;6.82;;;3.50;;
73585;SDS011;61865;50.232;18.614;2023-04-01T08:30:15;8.10;;;4.30;;
73585;SDS011;61865;50.232;18.614;2023-04-01T08:32:42;11.77;;;5.30;;
73585;SDS011;61865;50.232;18.614;2023-04-01T08:35:07;8.35;;;3.95;;
73585;SDS011;61865;50.232;18.614;2023-04-01T08:37:36;7.88;;;4.13;;
73585;SDS011;61865;50.232;18.614;2023-04-01T08:40:21;7.95;;;4.43;;
73585;SDS011;61865;50.232;18.614;2023-04-01T08:43:02;9.20;;;3.08;;
73585;SDS011;61865;50.232;18.614;2023-04-01T08:45:35;7.55;;;3.47;;
73585;SDS011;61865;50.232;18.614;2023-04-01T08:48:32;8.75;;;3.70;;
73585;SDS011;61865;50.232;18.614;2023-04-01T08:54:08;5.32;;;2.97;;
73585;SDS011;61865;50.232;18.614;2023-04-01T08:56:50;6.57;;;3.60;;
73585;SDS011;61865;50.232;18.614;2023-04-01T09:02:15;8.73;;;4.68;;
73585;SDS011;61865;50.232;18.614;2023-04-01T09:05:12;7.93;;;4.18;;
73585;SDS011;61865;50.232;18.614;2023-04-01T09:07:50;8.40;;;4.70;;
73585;SDS011;61865;50.232;18.614;2023-04-01T09:10:33;10.55;;;5.70;;
73585;SDS011;61865;50.232;18.614;2023-04-01T09:13:20;14.23;;;6.80;;
73585;SDS011;61865;50.232;18.614;2023-04-01T09:16:18;9.82;;;5.07;;
73585;SDS011;61865;50.232;18.614;2023-04-01T09:18:59;5.25;;;3.22;;
73585;SDS011;61865;50.232;18.614;2023-04-01T09:21:45;6.95;;;3.10;;
73585;SDS011;61865;50.232;18.614;2023-04-01T09:24:28;5.13;;;3.13;;
73585;SDS011;61865;50.232;18.614;2023-04-01T09:27:10;4.30;;;2.55;;
73585;SDS011;61865;50.232;18.614;2023-04-01T09:29:49;12.25;;;5.20;;
73585;SDS011;61865;50.232;18.614;2023-04-01T09:32:27;5.78;;;2.90;;
73585;SDS011;61865;50.232;18.614;2023-04-01T09:35:20;4.75;;;2.65;;
73585;SDS011;61865;50.232;18.614;2023-04-01T09:37:47;6.45;;;3.25;;
73585;SDS011;61865;50.232;18.614;2023-04-01T09:40:15;4.60;;;2.88;;
73585;SDS011;61865;50.232;18.614;2023-04-01T09:42:41;5.38;;;2.63;;
73585;SDS011;61865;50.232;18.614;2023-04-01T09:45:05;5.88;;;2.90;;
73585;SDS011;61865;50.232;18.614;2023-04-01T09:50:20;13.23;;;5.82;;
73585;SDS011;61865;50.232;18.614;2023-04-01T09:58:40;6.53;;;4.05;;
73585;SDS011;61865;50.232;18.614;2023-04-01T10:01:43;6.68;;;3.70;;
73585;SDS011;61865;50.232;18.614;2023-04-01T10:07:24;6.57;;;3.28;;
73585;SDS011;61865;50.232;18.614;2023-04-01T10:10:23;4.05;;;2.30;;
73585;SDS011;61865;50.232;18.614;2023-04-01T10:13:35;4.80;;;2.28;;
73585;SDS011;61865;50.232;18.614;2023-04-01T10:16:48;4.70;;;2.58;;
73585;SDS011;61865;50.232;18.614;2023-04-01T10:29:36;4.95;;;2.40;;
73585;SDS011;61865;50.232;18.614;2023-04-01T10:35:26;4.35;;;2.63;;
73585;SDS011;61865;50.232;18.614;2023-04-01T10:38:18;4.70;;;2.77;;
73585;SDS011;61865;50.232;18.614;2023-04-01T10:41:10;6.80;;;2.92;;
73585;SDS011;61865;50.232;18.614;2023-04-01T10:47:11;5.35;;;2.28;;
73585;SDS011;61865;50.232;18.614;2023-04-01T10:50:04;4.55;;;2.60;;
73585;SDS011;61865;50.232;18.614;2023-04-01T10:53:00;4.30;;;2.35;;
73585;SDS011;61865;50.232;18.614;2023-04-01T11:05:06;3.65;;;2.22;;
73585;SDS011;61865;50.232;18.614;2023-04-01T11:08:10;8.80;;;3.05;;
73585;SDS011;61865;50.232;18.614;2023-04-01T11:11:09;5.95;;;2.90;;
73585;SDS011;61865;50.232;18.614;2023-04-01T11:13:59;6.30;;;2.90;;
73585;SDS011;61865;50.232;18.614;2023-04-01T11:16:57;4.97;;;2.80;;
73585;SDS011;61865;50.232;18.614;2023-04-01T11:22:43;4.18;;;2.63;;
73585;SDS011;61865;50.232;18.614;2023-04-01T11:25:33;5.15;;;3.20;;
73585;SDS011;61865;50.232;18.614;2023-04-01T11:31:15;4.28;;;2.60;;
73585;SDS011;61865;50.232;18.614;2023-04-01T11:33:51;4.70;;;2.95;;
73585;SDS011;61865;50.232;18.614;2023-04-01T11:36:25;3.55;;;2.60;;
73585;SDS011;61865;50.232;18.614;2023-04-01T11:39:04;4.82;;;2.70;;
73585;SDS011;61865;50.232;18.614;2023-04-01T11:41:41;8.63;;;4.00;;
73585;SDS011;61865;50.232;18.614;2023-04-01T11:44:14;7.80;;;3.63;;
73585;SDS011;61865;50.232;18.614;2023-04-01T11:46:40;3.92;;;2.60;;
73585;SDS011;61865;50.232;18.614;2023-04-01T11:49:20;12.27;;;4.90;;
73585;SDS011;61865;50.232;18.614;2023-04-01T11:51:54;6.18;;;3.03;;
73585;SDS011;61865;50.232;18.614;2023-04-01T11:54:31;4.00;;;2.40;;
73585;SDS011;61865;50.232;18.614;2023-04-01T11:57:09;2.35;;;1.67;;
73585;SDS011;61865;50.232;18.614;2023-04-01T11:59:47;7.43;;;2.92;;
73585;SDS011;61865;50.232;18.614;2023-04-01T12:02:20;4.55;;;2.60;;
73585;SDS011;61865;50.232;18.614;2023-04-01T12:04:58;2.73;;;1.80;;
73585;SDS011;61865;50.232;18.614;2023-04-01T12:07:45;5.82;;;3.10;;
73585;SDS011;61865;50.232;18.614;2023-04-01T12:10:17;5.57;;;2.63;;
73585;SDS011;61865;50.232;18.614;2023-04-01T12:12:43;4.43;;;2.00;;
73585;SDS011;61865;50.232;18.614;2023-04-01T12:15:15;6.32;;;2.85;;
73585;SDS011;61865;50.232;18.614;2023-04-01T12:17:44;7.70;;;3.05;;
73585;SDS011;61865;50.232;18.614;2023-04-01T12:20:20;10.52;;;3.17;;
73585;SDS011;61865;50.232;18.614;2023-04-01T12:22:51;8.75;;;4.20;;
73585;SDS011;61865;50.232;18.614;2023-04-01T12:25:22;12.75;;;4.57;;
73585;SDS011;61865;50.232;18.614;2023-04-01T12:28:00;7.65;;;3.50;;
73585;SDS011;61865;50.232;18.614;2023-04-01T12:33:25;8.30;;;3.33;;
73585;SDS011;61865;50.232;18.614;2023-04-01T12:36:05;11.63;;;3.83;;
73585;SDS011;61865;50.232;18.614;2023-04-01T12:38:39;12.35;;;4.57;;
73585;SDS011;61865;50.232;18.614;2023-04-01T12:41:09;12.18;;;4.30;;
73585;SDS011;61865;50.232;18.614;2023-04-01T12:43:51;12.98;;;4.30;;
73585;SDS011;61865;50.232;18.614;2023-04-01T12:46:32;13.07;;;4.63;;
73585;SDS011;61865;50.232;18.614;2023-04-01T12:49:20;8.80;;;2.92;;
73585;SDS011;61865;50.232;18.614;2023-04-01T12:52:00;5.97;;;2.70;;
73585;SDS011;61865;50.232;18.614;2023-04-01T12:54:57;7.05;;;3.38;;
73585;SDS011;61865;50.232;18.614;2023-04-01T12:57:49;14.73;;;4.47;;
73585;SDS011;61865;50.232;18.614;2023-04-01T13:06:42;3.53;;;1.90;;
73585;SDS011;61865;50.232;18.614;2023-04-01T13:09:17;5.35;;;2.58;;
73585;SDS011;61865;50.232;18.614;2023-04-01T13:11:54;4.75;;;2.17;;
73585;SDS011;61865;50.232;18.614;2023-04-01T13:14:40;2.75;;;2.10;;
73585;SDS011;61865;50.232;18.614;2023-04-01T13:17:19;4.18;;;2.13;;
73585;SDS011;61865;50.232;18.614;2023-04-01T13:19:50;6.95;;;3.42;;
73585;SDS011;61865;50.232;18.614;2023-04-01T13:22:20;6.97;;;2.97;;
73585;SDS011;61865;50.232;18.614;2023-04-01T13:24:51;4.70;;;2.20;;
73585;SDS011;61865;50.232;18.614;2023-04-01T13:27:20;6.28;;;2.80;;
73585;SDS011;61865;50.232;18.614;2023-04-01T13:29:51;4.25;;;2.40;;
73585;SDS011;61865;50.232;18.614;2023-04-01T13:32:26;4.93;;;2.85;;
73585;SDS011;61865;50.232;18.614;2023-04-01T13:34:59;5.40;;;2.15;;
73585;SDS011;61865;50.232;18.614;2023-04-01T13:37:41;4.13;;;2.72;;
73585;SDS011;61865;50.232;18.614;2023-04-01T13:40:39;6.50;;;3.45;;
73585;SDS011;61865;50.232;18.614;2023-04-01T13:43:14;8.90;;;4.38;;
73585;SDS011;61865;50.232;18.614;2023-04-01T13:45:42;10.57;;;4.57;;
73585;SDS011;61865;50.232;18.614;2023-04-01T13:48:21;8.98;;;3.90;;
73585;SDS011;61865;50.232;18.614;2023-04-01T13:56:43;7.13;;;2.85;;
73585;SDS011;61865;50.232;18.614;2023-04-01T13:59:22;6.68;;;3.17;;
73585;SDS011;61865;50.232;18.614;2023-04-01T14:02:14;8.32;;;3.65;;
73585;SDS011;61865;50.232;18.614;2023-04-01T14:05:01;14.68;;;4.15;;
73585;SDS011;61865;50.232;18.614;2023-04-01T14:10:21;13.88;;;4.57;;
73585;SDS011;61865;50.232;18.614;2023-04-01T14:12:50;8.15;;;3.80;;
73585;SDS011;61865;50.232;18.614;2023-04-01T14:15:25;8.67;;;3.90;;
73585;SDS011;61865;50.232;18.614;2023-04-01T14:18:07;12.73;;;4.30;;
73585;SDS011;61865;50.232;18.614;2023-04-01T14:20:51;5.50;;;3.13;;
73585;SDS011;61865;50.232;18.614;2023-04-01T14:23:41;8.85;;;3.42;;
73585;SDS011;61865;50.232;18.614;2023-04-01T14:26:21;8.73;;;4.10;;
73585;SDS011;61865;50.232;18.614;2023-04-01T14:28:54;8.75;;;4.32;;
73585;SDS011;61865;50.232;18.614;2023-04-01T14:31:30;9.02;;;4.82;;
73585;SDS011;61865;50.232;18.614;2023-04-01T14:34:05;9.65;;;5.35;;
73585;SDS011;61865;50.232;18.614;2023-04-01T14:36:43;7.30;;;4.43;;
73585;SDS011;61865;50.232;18.614;2023-04-01T14:39:43;5.65;;;3.80;;
73585;SDS011;61865;50.232;18.614;2023-04-01T14:42:33;7.55;;;4.50;;
73585;SDS011;61865;50.232;18.614;2023-04-01T14:45:20;8.85;;;5.57;;
73585;SDS011;61865;50.232;18.614;2023-04-01T14:48:05;11.48;;;5.88;;
73585;SDS011;61865;50.232;18.614;2023-04-01T14:50:41;5.90;;;3.60;;
73585;SDS011;61865;50.232;18.614;2023-04-01T14:53:16;7.13;;;3.65;;
73585;SDS011;61865;50.232;18.614;2023-04-01T14:55:50;5.68;;;3.20;;
73585;SDS011;61865;50.232;18.614;2023-04-01T14:58:15;7.32;;;3.65;;
73585;SDS011;61865;50.232;18.614;2023-04-01T15:00:48;7.40;;;3.47;;
73585;SDS011;61865;50.232;18.614;2023-04-01T15:03:16;7.20;;;3.75;;
73585;SDS011;61865;50.232;18.614;2023-04-01T15:05:45;6.47;;;3.10;;
73585;SDS011;61865;50.232;18.614;2023-04-01T15:08:12;6.82;;;3.30;;
73585;SDS011;61865;50.232;18.614;2023-04-01T15:10:48;9.60;;;4.22;;
73585;SDS011;61865;50.232;18.614;2023-04-01T15:16:27;6.22;;;3.03;;
73585;SDS011;61865;50.232;18.614;2023-04-01T15:18:59;5.53;;;3.15;;
73585;SDS011;61865;50.232;18.614;2023-04-01T15:21:37;7.65;;;3.70;;
73585;SDS011;61865;50.232;18.614;2023-04-01T15:24:10;7.82;;;3.53;;
73585;SDS011;61865;50.232;18.614;2023-04-01T15:29:35;5.32;;;2.97;;
73585;SDS011;61865;50.232;18.614;2023-04-01T15:32:21;6.32;;;3.35;;
73585;SDS011;61865;50.232;18.614;2023-04-01T15:34:54;7.95;;;4.03;;
73585;SDS011;61865;50.232;18.614;2023-04-01T15:37:27;9.07;;;4.22;;
73585;SDS011;61865;50.232;18.614;2023-04-01T15:40:00;5.32;;;3.30;;
73585;SDS011;61865;50.232;18.614;2023-04-01T15:42:31;7.90;;;3.00;;
73585;SDS011;61865;50.232;18.614;2023-04-01T15:45:11;6.53;;;3.00;;
73585;SDS011;61865;50.232;18.614;2023-04-01T15:47:39;7.13;;;3.20;;
73585;SDS011;61865;50.232;18.614;2023-04-01T15:50:18;6.47;;;3.22;;
73585;SDS011;61865;50.232;18.614;2023-04-01T15:53:03;6.35;;;3.10;;
73585;SDS011;61865;50.232;18.614;2023-04-01T15:55:37;10.57;;;4.05;;
73585;SDS011;61865;50.232;18.614;2023-04-01T15:58:17;12.75;;;5.88;;
73585;SDS011;61865;50.232;18.614;2023-04-01T16:00:53;8.93;;;3.92;;
73585;SDS011;61865;50.232;18.614;2023-04-01T16:05:59;10.38;;;4.63;;
73585;SDS011;61865;50.232;18.614;2023-04-01T16:11:24;8.20;;;4.32;;
73585;SDS011;61865;50.232;18.614;2023-04-01T16:13:54;9.10;;;4.05;;
73585;SDS011;61865;50.232;18.614;2023-04-01T16:16:31;9.60;;;5.28;;